createdAt,value
2023-03-03T00:01:07.057Z,6.23
2023-03-03T00:03:36.712Z,6.22
2023-03-03T00:06:05.431Z,6.19
2023-03-03T00:08:33.841Z,6.14
2023-03-03T00:11:03.361Z,6.11
2023-03-03T00:13:32.477Z,6.06
2023-03-03T00:16:15.950Z,6.06
2023-03-03T00:18:47.547Z,6.04
2023-03-03T00:21:29.349Z,6.03
2023-03-03T00:24:18.250Z,5.99
2023-03-03T00:26:47.591Z,5.97
2023-03-03T00:29:30.896Z,5.93
2023-03-03T00:32:17.247Z,5.91
2023-03-03T00:34:46.643Z,5.92
2023-03-03T00:37:27.125Z,5.90
2023-03-03T00:39:55.438Z,5.88
2023-03-03T00:42:24.540Z,5.88
2023-03-03T00:44:57.905Z,5.86
2023-03-03T00:47:33.429Z,5.90
2023-03-03T00:50:25.726Z,5.94
2023-03-03T00:53:02.492Z,6.00
2023-03-03T00:55:30.566Z,6.00
2023-03-03T00:57:58.548Z,6.01
2023-03-03T01:00:26.479Z,6.02
2023-03-03T01:02:54.501Z,6.01
2023-03-03T01:05:23.906Z,5.96
2023-03-03T01:07:51.796Z,5.87
2023-03-03T01:10:19.971Z,5.79
2023-03-03T01:12:48.037Z,5.75
2023-03-03T01:15:16.754Z,5.72
2023-03-03T01:17:44.813Z,5.68
2023-03-03T01:20:15.245Z,5.67
2023-03-03T01:22:44.735Z,5.70
2023-03-03T01:25:12.791Z,5.73
2023-03-03T01:27:41.192Z,5.80
2023-03-03T01:30:10.732Z,5.88
2023-03-03T01:32:38.762Z,5.96
2023-03-03T01:35:08.010Z,6.06
2023-03-03T01:37:36.186Z,6.13
2023-03-03T01:40:07.277Z,6.20
2023-03-03T01:42:35.297Z,6.27
2023-03-03T01:45:25.335Z,6.29
2023-03-03T01:47:58.359Z,6.30
2023-03-03T01:50:37.270Z,6.28
2023-03-03T01:53:07.760Z,6.29
2023-03-03T01:55:40.561Z,6.24
2023-03-03T01:58:12.304Z,6.19
2023-03-03T02:00:46.041Z,6.13
2023-03-03T02:03:14.126Z,6.08
2023-03-03T02:05:44.291Z,6.02
2023-03-03T02:08:17.958Z,5.94
2023-03-03T02:10:48.117Z,5.82
2023-03-03T02:13:16.434Z,5.73
2023-03-03T02:15:44.558Z,5.68
2023-03-03T02:18:15.497Z,5.63
2023-03-03T02:20:54.786Z,5.58
2023-03-03T02:23:28.368Z,5.57
2023-03-03T02:26:08.438Z,5.54
2023-03-03T02:28:38.413Z,5.52
2023-03-03T02:31:11.026Z,5.48
2023-03-03T02:33:39.111Z,5.48
2023-03-03T02:36:07.781Z,5.47
2023-03-03T02:38:42.274Z,5.42
2023-03-03T02:41:17.388Z,5.35
2023-03-03T02:43:53.725Z,5.31
2023-03-03T02:46:21.978Z,5.31
2023-03-03T02:48:49.996Z,5.27
2023-03-03T02:51:17.936Z,5.22
2023-03-03T02:53:46.841Z,5.18
2023-03-03T02:56:16.516Z,5.13
2023-03-03T02:58:44.411Z,5.10
2023-03-03T03:01:12.786Z,5.07
2023-03-03T03:03:40.792Z,5.06
2023-03-03T03:06:09.343Z,5.05
2023-03-03T03:08:37.468Z,5.05
2023-03-03T03:11:07.058Z,5.06
2023-03-03T03:13:36.555Z,5.05
2023-03-03T03:16:04.754Z,5.09
2023-03-03T03:18:32.695Z,5.10
2023-03-03T03:21:08.010Z,5.09
2023-03-03T03:23:37.131Z,5.08
2023-03-03T03:26:06.112Z,5.03
2023-03-03T03:28:34.257Z,4.98
2023-03-03T03:31:03.834Z,4.95
2023-03-03T03:33:31.948Z,4.93
2023-03-03T03:36:00.119Z,4.94
2023-03-03T03:38:29.777Z,4.89
2023-03-03T03:40:58.082Z,4.88
2023-03-03T03:43:26.941Z,4.87
2023-03-03T03:45:54.953Z,4.91
2023-03-03T03:48:24.480Z,4.95
2023-03-03T03:50:52.688Z,4.98
2023-03-03T03:53:20.962Z,4.97
2023-03-03T03:55:48.973Z,4.96
2023-03-03T03:58:18.428Z,4.95
2023-03-03T04:00:47.370Z,4.93
2023-03-03T04:03:15.868Z,4.91
2023-03-03T04:05:45.686Z,4.89
2023-03-03T04:08:14.030Z,4.88
2023-03-03T04:10:41.894Z,4.87
2023-03-03T04:13:09.745Z,4.87
2023-03-03T04:15:37.751Z,4.85
2023-03-03T04:18:06.128Z,4.82
2023-03-03T04:20:34.183Z,4.82
2023-03-03T04:23:03.658Z,4.80
2023-03-03T04:25:31.665Z,4.79
2023-03-03T04:27:59.734Z,4.81
2023-03-03T04:30:28.108Z,4.83
2023-03-03T04:32:56.007Z,4.85
2023-03-03T04:35:24.105Z,4.87
2023-03-03T04:37:52.030Z,4.86
2023-03-03T04:40:21.382Z,4.85
2023-03-03T04:42:49.518Z,4.83
2023-03-03T04:45:17.685Z,4.82
2023-03-03T04:47:45.648Z,4.80
2023-03-03T04:50:13.770Z,4.78
2023-03-03T04:52:41.701Z,4.77
2023-03-03T04:55:10.955Z,4.77
2023-03-03T04:57:40.250Z,4.81
2023-03-03T05:00:13.066Z,4.80
2023-03-03T05:02:41.537Z,4.80
2023-03-03T05:05:11.341Z,4.77
2023-03-03T05:07:39.326Z,4.79
2023-03-03T05:10:08.843Z,4.81
2023-03-03T05:12:36.700Z,4.85
2023-03-03T05:15:07.617Z,4.86
2023-03-03T05:17:35.570Z,4.87
2023-03-03T05:20:03.506Z,4.87
2023-03-03T05:22:31.440Z,4.85
2023-03-03T05:24:59.326Z,4.86
2023-03-03T05:27:27.277Z,4.86
2023-03-03T05:29:55.228Z,4.86
2023-03-03T05:32:24.570Z,4.83
2023-03-03T05:34:52.674Z,4.82
2023-03-03T05:37:20.806Z,4.81
2023-03-03T05:39:48.707Z,4.78
2023-03-03T05:42:16.598Z,4.75
2023-03-03T05:44:44.465Z,4.70
2023-03-03T05:47:12.653Z,4.64
2023-03-03T05:49:42.147Z,4.62
2023-03-03T05:52:10.216Z,4.56
2023-03-03T05:54:38.169Z,4.52
2023-03-03T05:57:06.121Z,4.49
2023-03-03T05:59:34.077Z,4.49
2023-03-03T06:02:02.272Z,4.48
2023-03-03T06:04:30.217Z,4.50
2023-03-03T06:06:59.650Z,4.53
2023-03-03T06:09:28.068Z,4.57
2023-03-03T06:11:55.890Z,4.61
2023-03-03T06:14:26.908Z,4.60
2023-03-03T06:16:55.077Z,4.57
2023-03-03T06:19:23.051Z,4.56
2023-03-03T06:21:51.080Z,4.53
2023-03-03T06:24:20.362Z,4.47
2023-03-03T06:26:48.411Z,4.45
2023-03-03T06:29:16.784Z,4.43
2023-03-03T06:31:45.166Z,4.41
2023-03-03T06:34:13.112Z,4.37
2023-03-03T06:36:41.907Z,4.35
2023-03-03T06:39:09.806Z,4.35
2023-03-03T06:41:39.750Z,4.34
2023-03-03T06:44:07.701Z,4.33
2023-03-03T06:46:35.715Z,4.31
2023-03-03T06:49:03.670Z,4.28
2023-03-03T06:51:35.009Z,4.24
2023-03-03T06:54:10.847Z,4.22
2023-03-03T06:56:40.693Z,4.22
2023-03-03T06:59:13.925Z,4.23
2023-03-03T07:01:42.260Z,4.23
2023-03-03T07:04:22.897Z,4.22
2023-03-03T07:06:51.032Z,4.23
2023-03-03T07:09:24.092Z,4.28
2023-03-03T07:11:54.188Z,4.32
2023-03-03T07:14:22.316Z,4.34
2023-03-03T07:16:54.982Z,4.37
2023-03-03T07:19:33.067Z,4.38
2023-03-03T07:22:05.794Z,4.41
2023-03-03T07:24:34.579Z,4.46
2023-03-03T07:27:13.756Z,4.50
2023-03-03T07:29:42.337Z,4.55
2023-03-03T07:32:26.143Z,4.56
2023-03-03T07:34:56.190Z,4.59
2023-03-03T07:37:31.790Z,4.63
2023-03-03T07:40:01.924Z,4.68
2023-03-03T07:42:39.952Z,4.76
2023-03-03T07:45:25.135Z,4.85
2023-03-03T07:47:53.345Z,4.89
2023-03-03T07:50:25.493Z,4.93
2023-03-03T07:52:57.535Z,4.95
2023-03-03T07:55:34.102Z,4.93
2023-03-03T07:58:22.199Z,4.94
2023-03-03T08:01:29.324Z,4.98
2023-03-03T08:03:57.671Z,5.01
2023-03-03T08:06:41.438Z,5.00
2023-03-03T08:09:32.704Z,5.04
2023-03-03T08:12:10.326Z,5.09
2023-03-03T08:14:40.186Z,5.17
2023-03-03T08:17:16.081Z,5.25
2023-03-03T08:19:43.962Z,5.38
2023-03-03T08:22:17.408Z,5.47
2023-03-03T08:24:45.371Z,5.59
2023-03-03T08:27:13.258Z,5.66
2023-03-03T08:29:42.801Z,5.74
2023-03-03T08:32:10.800Z,5.83
2023-03-03T08:34:38.782Z,5.91
2023-03-03T08:37:06.852Z,5.98
2023-03-03T08:39:34.829Z,6.04
2023-03-03T08:42:02.877Z,6.08
2023-03-03T08:44:30.767Z,6.13
2023-03-03T08:47:00.454Z,6.20
2023-03-03T08:49:28.432Z,6.26
2023-03-03T08:51:57.192Z,6.34
2023-03-03T08:54:25.034Z,6.47
2023-03-03T08:56:52.943Z,6.60
2023-03-03T08:59:22.581Z,6.72
2023-03-03T09:01:50.619Z,6.91
2023-03-03T09:04:20.060Z,7.10
2023-03-03T09:06:48.466Z,7.30
2023-03-03T09:09:16.492Z,7.51
2023-03-03T09:11:44.741Z,7.67
2023-03-03T09:14:15.768Z,7.84
2023-03-03T09:16:50.997Z,7.99
2023-03-03T09:19:25.483Z,8.19
2023-03-03T09:21:54.958Z,8.33
2023-03-03T09:24:28.000Z,8.46
2023-03-03T09:26:56.037Z,8.64
2023-03-03T09:29:29.349Z,8.80
2023-03-03T09:32:01.062Z,8.96
2023-03-03T09:34:41.090Z,9.11
2023-03-03T09:37:23.864Z,9.22
2023-03-03T09:39:53.386Z,9.27
2023-03-03T09:42:57.022Z,9.34
2023-03-03T09:45:59.819Z,9.44
2023-03-03T09:48:40.196Z,9.56
2023-03-03T09:51:20.928Z,9.70
2023-03-03T09:54:02.018Z,9.84
2023-03-03T09:56:35.406Z,10.03
2023-03-03T09:59:17.816Z,10.23
2023-03-03T10:01:56.361Z,10.47
2023-03-03T10:05:00.562Z,10.72
2023-03-03T10:07:39.466Z,10.99
2023-03-03T10:10:30.849Z,11.24
2023-03-03T10:13:13.243Z,11.43
2023-03-03T10:15:54.787Z,11.55
2023-03-03T10:18:33.807Z,11.69
2023-03-03T10:21:09.847Z,11.81
2023-03-03T10:23:56.889Z,11.94
2023-03-03T10:26:52.545Z,12.07
2023-03-03T10:29:37.142Z,12.23
2023-03-03T10:32:32.150Z,12.36
2023-03-03T10:35:16.894Z,12.43
2023-03-03T10:37:55.269Z,12.60
2023-03-03T10:40:33.064Z,12.75
2023-03-03T10:43:43.799Z,12.89
2023-03-03T10:46:32.320Z,13.01
2023-03-03T10:49:21.150Z,13.14
2023-03-03T10:52:02.064Z,13.25
2023-03-03T10:54:46.125Z,13.32
2023-03-03T10:57:24.269Z,13.37
2023-03-03T11:00:05.517Z,13.42
2023-03-03T11:02:44.822Z,13.54
2023-03-03T11:05:38.299Z,13.67
2023-03-03T11:08:13.940Z,13.77
2023-03-03T11:10:52.378Z,13.85
2023-03-03T11:13:29.281Z,13.88
2023-03-03T11:16:19.504Z,13.95
2023-03-03T11:19:02.941Z,13.98
2023-03-03T11:21:36.234Z,13.99
2023-03-03T11:24:17.464Z,14.00
2023-03-03T11:27:07.832Z,13.97
2023-03-03T11:29:51.528Z,13.99
2023-03-03T11:32:28.600Z,14.06
2023-03-03T11:35:05.562Z,14.07
2023-03-03T11:37:42.001Z,14.13
2023-03-03T11:40:18.455Z,14.12
2023-03-03T11:42:57.598Z,14.09
2023-03-03T11:45:32.534Z,14.12
2023-03-03T11:48:06.379Z,14.17
2023-03-03T11:50:40.445Z,14.20
2023-03-03T11:53:28.168Z,14.17
2023-03-03T11:56:00.003Z,14.13
2023-03-03T11:58:33.244Z,14.12
2023-03-03T12:01:09.843Z,14.10
2023-03-03T12:03:42.759Z,14.09
2023-03-03T12:06:22.686Z,14.07
2023-03-03T12:09:11.854Z,14.01
2023-03-03T12:11:49.433Z,13.93
2023-03-03T12:14:33.232Z,13.86
2023-03-03T12:17:07.298Z,13.79
2023-03-03T12:19:40.298Z,13.79
2023-03-03T12:22:24.443Z,13.81
2023-03-03T12:25:06.044Z,13.83
2023-03-03T12:27:44.925Z,13.82
2023-03-03T12:30:22.168Z,13.74
2023-03-03T12:33:05.948Z,13.74
2023-03-03T12:35:40.532Z,13.77
2023-03-03T12:38:17.652Z,13.84
2023-03-03T12:40:53.718Z,13.93
2023-03-03T12:43:37.545Z,14.00
2023-03-03T12:46:13.224Z,14.05
2023-03-03T12:48:45.020Z,14.12
2023-03-03T12:51:26.068Z,14.22
2023-03-03T12:54:19.969Z,14.35
2023-03-03T12:56:55.073Z,14.39
2023-03-03T12:59:30.422Z,14.40
2023-03-03T13:02:16.899Z,14.48
2023-03-03T13:04:54.801Z,14.51
2023-03-03T13:07:28.625Z,14.50
2023-03-03T13:10:15.566Z,14.50
2023-03-03T13:12:51.773Z,14.47
2023-03-03T13:15:31.966Z,14.38
2023-03-03T13:18:20.816Z,14.31
2023-03-03T13:20:55.049Z,14.19
2023-03-03T13:23:38.257Z,14.13
2023-03-03T13:26:12.879Z,14.15
2023-03-03T13:28:50.476Z,14.15
2023-03-03T13:31:22.379Z,14.15
2023-03-03T13:33:55.524Z,14.17
2023-03-03T13:36:27.829Z,14.25
2023-03-03T13:39:01.538Z,14.22
2023-03-03T13:41:34.984Z,14.23
2023-03-03T13:44:07.176Z,14.26
2023-03-03T13:46:43.601Z,14.25
2023-03-03T13:49:37.467Z,14.30
2023-03-03T13:52:09.912Z,14.27
2023-03-03T13:54:59.174Z,14.22
2023-03-03T13:57:52.393Z,14.18
2023-03-03T14:00:32.028Z,14.09
2023-03-03T14:03:33.262Z,14.03
2023-03-03T14:06:04.532Z,13.93
2023-03-03T14:08:59.170Z,13.90
2023-03-03T14:11:31.336Z,13.83
2023-03-03T14:14:09.475Z,13.83
2023-03-03T14:16:48.477Z,13.84
2023-03-03T14:19:20.353Z,13.83
2023-03-03T14:22:00.505Z,13.81
2023-03-03T14:24:30.152Z,13.79
2023-03-03T14:26:59.808Z,13.80
2023-03-03T14:29:35.312Z,13.79
2023-03-03T14:32:21.385Z,13.82
2023-03-03T14:34:59.709Z,13.83
2023-03-03T14:37:29.988Z,13.85
2023-03-03T14:40:17.388Z,13.89
2023-03-03T14:42:50.015Z,13.88
2023-03-03T14:45:35.961Z,13.93
2023-03-03T14:48:17.239Z,13.96
2023-03-03T14:50:50.924Z,13.93
2023-03-03T14:53:32.091Z,13.88
2023-03-03T14:56:18.381Z,13.76
2023-03-03T14:58:46.446Z,13.60
2023-03-03T15:01:23.933Z,13.46
2023-03-03T15:04:00.447Z,13.28
2023-03-03T15:06:37.786Z,13.12
2023-03-03T15:09:41.982Z,12.97
2023-03-03T15:12:24.475Z,12.88
2023-03-03T15:14:54.225Z,12.81
2023-03-03T15:17:34.815Z,12.80
2023-03-03T15:20:14.894Z,12.79
2023-03-03T15:22:49.724Z,12.82
2023-03-03T15:25:41.926Z,12.85
2023-03-03T15:28:28.121Z,12.87
2023-03-03T15:31:04.558Z,12.88
2023-03-03T15:33:39.118Z,12.87
2023-03-03T15:36:16.866Z,12.84
2023-03-03T15:38:57.296Z,12.83
2023-03-03T15:41:35.947Z,12.85
2023-03-03T15:44:16.039Z,12.88
2023-03-03T15:47:12.408Z,12.91
2023-03-03T15:49:59.659Z,12.92
2023-03-03T15:52:46.560Z,12.88
2023-03-03T15:55:27.519Z,12.85
2023-03-03T15:58:05.800Z,12.82
2023-03-03T16:00:49.478Z,12.77
2023-03-03T16:03:22.996Z,12.70
2023-03-03T16:05:55.372Z,12.67
2023-03-03T16:08:31.035Z,12.62
2023-03-03T16:11:08.289Z,12.60
2023-03-03T16:14:20.043Z,12.62
2023-03-03T16:16:55.685Z,12.61
2023-03-03T16:19:41.193Z,12.67
2023-03-03T16:22:37.442Z,12.75
2023-03-03T16:25:21.857Z,12.78
2023-03-03T16:27:57.213Z,12.78
2023-03-03T16:30:30.721Z,12.76
2023-03-03T16:33:20.323Z,12.73
2023-03-03T16:35:57.443Z,12.69
2023-03-03T16:38:33.571Z,12.62
2023-03-03T16:41:02.684Z,12.56
2023-03-03T16:43:43.283Z,12.50
2023-03-03T16:46:23.354Z,12.46
2023-03-03T16:49:01.309Z,12.43
2023-03-03T16:51:40.680Z,12.38
2023-03-03T16:54:12.807Z,12.33
2023-03-03T16:56:45.734Z,12.30
2023-03-03T16:59:35.113Z,12.30
2023-03-03T17:02:18.741Z,12.24
2023-03-03T17:04:57.809Z,12.15
2023-03-03T17:07:43.518Z,12.09
2023-03-03T17:10:26.485Z,12.07
2023-03-03T17:13:15.789Z,12.06
2023-03-03T17:15:54.025Z,12.05
2023-03-03T17:18:37.743Z,12.03
2023-03-03T17:21:15.859Z,12.00
2023-03-03T17:23:57.120Z,11.99
2023-03-03T17:26:36.796Z,11.94
2023-03-03T17:29:19.182Z,11.91
2023-03-03T17:31:55.110Z,11.88
2023-03-03T17:34:31.977Z,11.86
2023-03-03T17:37:15.659Z,11.84
2023-03-03T17:40:01.765Z,11.82
2023-03-03T17:42:38.384Z,11.77
2023-03-03T17:45:10.474Z,11.73
2023-03-03T17:47:51.893Z,11.72
2023-03-03T17:50:47.883Z,11.69
2023-03-03T17:53:34.677Z,11.63
2023-03-03T17:56:17.706Z,11.60
2023-03-03T17:59:09.141Z,11.57
2023-03-03T18:01:53.312Z,11.55
2023-03-03T18:04:36.973Z,11.55
2023-03-03T18:07:35.181Z,11.55
2023-03-03T18:10:27.831Z,11.49
2023-03-03T18:13:05.716Z,11.48
2023-03-03T18:16:10.717Z,11.46
2023-03-03T18:19:15.250Z,11.45
2023-03-03T18:21:52.658Z,11.41
2023-03-03T18:24:31.979Z,11.39
2023-03-03T18:27:28.873Z,11.39
2023-03-03T18:30:24.873Z,11.39
2023-03-03T18:33:09.417Z,11.35
2023-03-03T18:35:39.581Z,11.34
2023-03-03T18:38:37.652Z,11.35
2023-03-03T18:41:06.865Z,11.29
2023-03-03T18:44:23.985Z,11.27
2023-03-03T18:46:54.664Z,11.23
2023-03-03T18:50:00.713Z,11.20
2023-03-03T18:52:30.893Z,11.18
2023-03-03T18:55:27.149Z,11.21
2023-03-03T18:58:34.017Z,11.21
2023-03-03T19:01:14.318Z,11.19
2023-03-03T19:04:02.151Z,11.18
2023-03-03T19:06:32.590Z,11.19
2023-03-03T19:09:00.872Z,11.15
2023-03-03T19:11:37.756Z,11.14
2023-03-03T19:14:32.576Z,11.09
2023-03-03T19:17:39.887Z,11.06
2023-03-03T19:20:15.504Z,11.07
2023-03-03T19:22:48.036Z,11.11
2023-03-03T19:25:21.887Z,11.11
2023-03-03T19:28:04.842Z,11.07
2023-03-03T19:30:46.255Z,11.08
2023-03-03T19:33:41.904Z,11.08
2023-03-03T19:36:26.869Z,11.09
2023-03-03T19:39:09.910Z,11.09
2023-03-03T19:41:50.028Z,11.09
2023-03-03T19:44:35.805Z,11.11
2023-03-03T19:47:06.084Z,11.11
2023-03-03T19:49:54.764Z,11.08
2023-03-03T19:52:31.419Z,11.09
2023-03-03T19:55:15.268Z,11.08
2023-03-03T19:57:54.235Z,11.07
2023-03-03T20:00:32.195Z,11.07
2023-03-03T20:03:38.313Z,11.11
2023-03-03T20:06:21.725Z,11.09
2023-03-03T20:08:55.035Z,11.09
2023-03-03T20:11:46.345Z,11.08
2023-03-03T20:14:26.160Z,11.09
2023-03-03T20:16:58.344Z,11.09
2023-03-03T20:19:44.071Z,11.11
2023-03-03T20:22:24.797Z,11.11
2023-03-03T20:25:09.443Z,11.07
2023-03-03T20:27:46.888Z,11.12
2023-03-03T20:30:28.803Z,11.09
2023-03-03T20:33:12.297Z,11.05
2023-03-03T20:35:51.555Z,11.03
2023-03-03T20:38:28.804Z,10.99
2023-03-03T20:41:07.044Z,10.99
2023-03-03T20:43:48.169Z,10.97
2023-03-03T20:46:23.562Z,10.97
2023-03-03T20:49:12.240Z,10.95
2023-03-03T20:51:46.261Z,10.98
2023-03-03T20:54:25.185Z,10.95
2023-03-03T20:56:58.250Z,10.95
2023-03-03T20:59:32.135Z,10.93
2023-03-03T21:02:11.589Z,10.92
2023-03-03T21:04:39.711Z,10.93
2023-03-03T21:07:07.959Z,10.93
2023-03-03T21:09:39.782Z,10.91
2023-03-03T21:12:13.086Z,10.91
2023-03-03T21:14:41.251Z,10.87
2023-03-03T21:17:26.902Z,10.86
2023-03-03T21:19:55.056Z,10.84
2023-03-03T21:22:23.884Z,10.81
2023-03-03T21:24:56.824Z,10.81
2023-03-03T21:27:27.224Z,10.85
2023-03-03T21:30:12.786Z,10.82
2023-03-03T21:32:42.974Z,10.86
2023-03-03T21:35:13.281Z,10.85
2023-03-03T21:37:47.651Z,10.84
2023-03-03T21:40:20.916Z,10.83
2023-03-03T21:42:49.331Z,10.82
2023-03-03T21:45:20.425Z,10.85
2023-03-03T21:47:49.050Z,10.83
2023-03-03T21:50:20.262Z,10.82
2023-03-03T21:52:48.267Z,10.80
2023-03-03T21:55:17.668Z,10.80
2023-03-03T21:57:45.732Z,10.79
2023-03-03T22:00:14.477Z,10.79
2023-03-03T22:02:42.380Z,10.79
2023-03-03T22:05:10.476Z,10.78
2023-03-03T22:07:38.418Z,10.78
2023-03-03T22:10:07.741Z,10.78
2023-03-03T22:12:37.194Z,10.79
2023-03-03T22:15:05.664Z,10.80
2023-03-03T22:17:33.717Z,10.80
2023-03-03T22:20:01.845Z,10.80
2023-03-03T22:22:29.916Z,10.80
2023-03-03T22:24:57.882Z,10.80
2023-03-03T22:27:25.966Z,10.81
2023-03-03T22:29:55.518Z,10.77
2023-03-03T22:32:23.498Z,10.78
2023-03-03T22:34:51.476Z,10.79
2023-03-03T22:37:19.465Z,10.80
2023-03-03T22:39:47.408Z,10.79
2023-03-03T22:42:15.353Z,10.80
2023-03-03T22:44:45.808Z,10.78
2023-03-03T22:47:15.360Z,10.79
2023-03-03T22:49:43.311Z,10.78
2023-03-03T22:52:11.186Z,10.76
2023-03-03T22:54:39.085Z,10.76
2023-03-03T22:57:07.148Z,10.72
2023-03-03T22:59:35.100Z,10.69
2023-03-03T23:02:03.050Z,10.69
2023-03-03T23:04:33.786Z,10.70
2023-03-03T23:07:05.990Z,10.70
2023-03-03T23:09:34.327Z,10.70
2023-03-03T23:12:02.309Z,10.67
2023-03-03T23:14:30.357Z,10.67
2023-03-03T23:16:58.247Z,10.65
2023-03-03T23:19:26.662Z,10.66
2023-03-03T23:21:56.028Z,10.64
2023-03-03T23:24:23.872Z,10.67
2023-03-03T23:26:56.822Z,10.68
2023-03-03T23:29:25.215Z,10.69
2023-03-03T23:31:53.183Z,10.68
2023-03-03T23:34:21.187Z,10.69
2023-03-03T23:36:49.543Z,10.69
2023-03-03T23:39:18.951Z,10.69
2023-03-03T23:41:46.958Z,10.70
2023-03-03T23:44:15.389Z,10.71
2023-03-03T23:46:43.487Z,10.73
2023-03-03T23:49:11.509Z,10.73
2023-03-03T23:51:39.441Z,10.73
2023-03-03T23:54:07.508Z,10.72
2023-03-03T23:56:36.884Z,10.72
2023-03-03T23:59:04.930Z,10.72
